sensor_id;sensor_type;location;lat;lon;timestamp;pressure;altitude;pressure_sealevel;temperature;humidity
31483;BME280;18103;52.246;8.052;2023-04-03T00:01:29;101868.34;;;3.72;75.44
31483;BME280;18103;52.246;8.052;2023-04-03T00:03:57;101871.69;;;3.77;74.96
31483;BME280;18103;52.246;8.052;2023-04-03T00:06:25;101872.88;;;3.65;75.01
31483;BME280;18103;52.246;8.052;2023-04-03T00:08:51;101871.25;;;3.61;74.94
31483;BME280;18103;52.246;8.052;2023-04-03T00:11:17;101871.84;;;3.72;73.80
31483;BME280;18103;52.246;8.052;2023-04-03T00:13:43;101883.31;;;3.65;73.94
31483;BME280;18103;52.246;8.052;2023-04-03T00:16:10;101879.22;;;3.55;73.05
31483;BME280;18103;52.246;8.052;2023-04-03T00:18:39;101878.66;;;3.42;72.73
31483;BME280;18103;52.246;8.052;2023-04-03T00:21:05;101868.03;;;3.48;72.83
31483;BME280;18103;52.246;8.052;2023-04-03T00:23:30;101873.13;;;3.54;72.44
31483;BME280;18103;52.246;8.052;2023-04-03T00:25:56;101890.06;;;3.38;72.43
31483;BME280;18103;52.246;8.052;2023-04-03T00:28:22;101883.94;;;3.39;71.78
31483;BME280;18103;52.246;8.052;2023-04-03T00:30:51;101887.44;;;3.38;71.89
31483;BME280;18103;52.246;8.052;2023-04-03T00:33:16;101887.28;;;3.44;71.75
31483;BME280;18103;52.246;8.052;2023-04-03T00:35:44;101885.94;;;3.28;71.95
31483;BME280;18103;52.246;8.052;2023-04-03T00:38:12;101886.63;;;3.36;71.74
31483;BME280;18103;52.246;8.052;2023-04-03T00:40:43;101894.63;;;3.28;71.95
31483;BME280;18103;52.246;8.052;2023-04-03T00:43:14;101893.00;;;3.22;72.50
31483;BME280;18103;52.246;8.052;2023-04-03T00:45:44;101894.16;;;3.11;73.06
31483;BME280;18103;52.246;8.052;2023-04-03T00:48:17;101893.16;;;3.16;72.52
31483;BME280;18103;52.246;8.052;2023-04-03T00:50:44;101889.88;;;3.08;73.24
31483;BME280;18103;52.246;8.052;2023-04-03T00:53:14;101888.16;;;3.07;73.05
31483;BME280;18103;52.246;8.052;2023-04-03T00:55:41;101895.13;;;3.05;73.38
31483;BME280;18103;52.246;8.052;2023-04-03T00:58:07;101891.56;;;3.11;72.98
31483;BME280;18103;52.246;8.052;2023-04-03T01:00:33;101895.91;;;3.10;72.91
31483;BME280;18103;52.246;8.052;2023-04-03T01:03:00;101901.19;;;3.07;72.95
31483;BME280;18103;52.246;8.052;2023-04-03T01:05:26;101897.09;;;2.95;73.45
31483;BME280;18103;52.246;8.052;2023-04-03T01:07:54;101900.63;;;2.93;73.29
31483;BME280;18103;52.246;8.052;2023-04-03T01:10:22;101892.00;;;2.89;73.54
31483;BME280;18103;52.246;8.052;2023-04-03T01:12:51;101897.25;;;2.87;73.36
31483;BME280;18103;52.246;8.052;2023-04-03T01:15:26;101898.78;;;2.98;72.85
31483;BME280;18103;52.246;8.052;2023-04-03T01:17:56;101899.03;;;2.87;73.20
31483;BME280;18103;52.246;8.052;2023-04-03T01:25:32;101904.16;;;2.90;72.84
31483;BME280;18103;52.246;8.052;2023-04-03T01:27:57;101901.00;;;2.74;73.20
31483;BME280;18103;52.246;8.052;2023-04-03T01:30:33;101906.19;;;2.76;73.61
31483;BME280;18103;52.246;8.052;2023-04-03T01:32:59;101909.56;;;2.81;73.09
31483;BME280;18103;52.246;8.052;2023-04-03T01:35:25;101922.09;;;2.63;73.68
31483;BME280;18103;52.246;8.052;2023-04-03T01:37:50;101909.13;;;2.59;73.57
31483;BME280;18103;52.246;8.052;2023-04-03T01:40:16;101912.59;;;2.61;73.87
31483;BME280;18103;52.246;8.052;2023-04-03T01:42:44;101919.75;;;2.49;74.50
31483;BME280;18103;52.246;8.052;2023-04-03T01:45:09;101917.09;;;2.52;74.15
31483;BME280;18103;52.246;8.052;2023-04-03T01:47:35;101923.28;;;2.47;74.39
31483;BME280;18103;52.246;8.052;2023-04-03T01:50:00;101920.75;;;2.40;74.53
31483;BME280;18103;52.246;8.052;2023-04-03T01:52:28;101918.97;;;2.44;74.66
31483;BME280;18103;52.246;8.052;2023-04-03T01:54:54;101924.31;;;2.38;74.83
31483;BME280;18103;52.246;8.052;2023-04-03T01:57:21;101921.72;;;2.38;74.72
31483;BME280;18103;52.246;8.052;2023-04-03T01:59:50;101912.19;;;2.35;75.06
31483;BME280;18103;52.246;8.052;2023-04-03T02:02:20;101917.38;;;2.37;74.85
31483;BME280;18103;52.246;8.052;2023-04-03T02:04:48;101932.25;;;2.30;75.29
31483;BME280;18103;52.246;8.052;2023-04-03T02:07:13;101919.16;;;2.33;75.03
31483;BME280;18103;52.246;8.052;2023-04-03T02:09:39;101923.56;;;2.31;75.08
31483;BME280;18103;52.246;8.052;2023-04-03T02:12:04;101917.56;;;2.26;75.16
31483;BME280;18103;52.246;8.052;2023-04-03T02:14:32;101923.69;;;2.23;75.25
31483;BME280;18103;52.246;8.052;2023-04-03T02:17:05;101920.13;;;2.28;75.23
31483;BME280;18103;52.246;8.052;2023-04-03T02:19:34;101919.59;;;2.10;75.75
31483;BME280;18103;52.246;8.052;2023-04-03T02:22:00;101928.97;;;2.20;75.71
31483;BME280;18103;52.246;8.052;2023-04-03T02:24:25;101936.97;;;2.10;75.98
31483;BME280;18103;52.246;8.052;2023-04-03T02:26:54;101925.81;;;2.03;75.78
31483;BME280;18103;52.246;8.052;2023-04-03T02:29:19;101931.88;;;2.03;75.80
31483;BME280;18103;52.246;8.052;2023-04-03T02:31:45;101927.53;;;2.02;75.69
31483;BME280;18103;52.246;8.052;2023-04-03T02:34:10;101931.03;;;2.00;76.04
31483;BME280;18103;52.246;8.052;2023-04-03T02:36:36;101925.09;;;1.92;76.39
31483;BME280;18103;52.246;8.052;2023-04-03T02:39:03;101927.72;;;1.93;76.00
31483;BME280;18103;52.246;8.052;2023-04-03T02:41:29;101926.16;;;1.81;76.43
31483;BME280;18103;52.246;8.052;2023-04-03T02:44:00;101933.19;;;1.75;77.05
31483;BME280;18103;52.246;8.052;2023-04-03T02:46:28;101933.91;;;1.84;76.17
31483;BME280;18103;52.246;8.052;2023-04-03T02:48:56;101934.84;;;1.80;76.57
31483;BME280;18103;52.246;8.052;2023-04-03T02:51:24;101934.00;;;1.78;76.48
31483;BME280;18103;52.246;8.052;2023-04-03T02:53:54;101940.91;;;1.81;76.12
31483;BME280;18103;52.246;8.052;2023-04-03T02:56:19;101935.88;;;1.70;76.72
31483;BME280;18103;52.246;8.052;2023-04-03T02:58:47;101940.28;;;1.65;77.01
31483;BME280;18103;52.246;8.052;2023-04-03T03:01:13;101932.47;;;1.65;76.56
31483;BME280;18103;52.246;8.052;2023-04-03T03:03:39;101936.78;;;1.67;76.08
31483;BME280;18103;52.246;8.052;2023-04-03T03:06:10;101937.75;;;1.60;76.43
31483;BME280;18103;52.246;8.052;2023-04-03T03:08:36;101950.75;;;1.62;76.49
31483;BME280;18103;52.246;8.052;2023-04-03T03:11:02;101945.50;;;1.65;76.14
31483;BME280;18103;52.246;8.052;2023-04-03T03:13:28;101940.44;;;1.56;76.13
31483;BME280;18103;52.246;8.052;2023-04-03T03:15:53;101936.13;;;1.53;76.45
31483;BME280;18103;52.246;8.052;2023-04-03T03:18:21;101944.72;;;1.60;76.37
31483;BME280;18103;52.246;8.052;2023-04-03T03:20:53;101941.41;;;1.50;76.68
31483;BME280;18103;52.246;8.052;2023-04-03T03:23:21;101949.22;;;1.50;76.85
31483;BME280;18103;52.246;8.052;2023-04-03T03:25:49;101946.63;;;1.47;76.38
31483;BME280;18103;52.246;8.052;2023-04-03T03:28:17;101954.44;;;1.48;76.20
31483;BME280;18103;52.246;8.052;2023-04-03T03:30:45;101946.72;;;1.41;76.22
31483;BME280;18103;52.246;8.052;2023-04-03T03:33:13;101957.19;;;1.38;76.57
31483;BME280;18103;52.246;8.052;2023-04-03T03:35:42;101946.81;;;1.36;76.76
31483;BME280;18103;52.246;8.052;2023-04-03T03:38:11;101952.03;;;1.33;76.91
31483;BME280;18103;52.246;8.052;2023-04-03T03:40:39;101964.19;;;1.32;76.79
31483;BME280;18103;52.246;8.052;2023-04-03T03:43:05;101969.41;;;1.31;77.12
31483;BME280;18103;52.246;8.052;2023-04-03T03:45:30;101967.66;;;1.31;76.37
31483;BME280;18103;52.246;8.052;2023-04-03T03:47:58;101968.50;;;1.35;76.19
31483;BME280;18103;52.246;8.052;2023-04-03T03:50:26;101967.72;;;1.27;76.73
31483;BME280;18103;52.246;8.052;2023-04-03T03:52:52;101967.84;;;1.17;76.70
31483;BME280;18103;52.246;8.052;2023-04-03T03:55:17;101972.06;;;1.28;76.53
31483;BME280;18103;52.246;8.052;2023-04-03T03:57:43;101967.69;;;1.28;76.24
31483;BME280;18103;52.246;8.052;2023-04-03T04:00:11;101977.28;;;1.23;76.25
31483;BME280;18103;52.246;8.052;2023-04-03T04:02:42;101973.13;;;1.11;76.62
31483;BME280;18103;52.246;8.052;2023-04-03T04:05:10;101976.56;;;1.13;76.48
31483;BME280;18103;52.246;8.052;2023-04-03T04:07:35;101984.34;;;1.16;76.51
31483;BME280;18103;52.246;8.052;2023-04-03T04:10:01;101980.09;;;1.11;76.61
31483;BME280;18103;52.246;8.052;2023-04-03T04:12:28;101980.00;;;1.15;76.58
31483;BME280;18103;52.246;8.052;2023-04-03T04:14:54;101982.72;;;1.06;76.73
31483;BME280;18103;52.246;8.052;2023-04-03T04:17:25;101979.34;;;1.01;77.20
31483;BME280;18103;52.246;8.052;2023-04-03T04:19:53;101982.75;;;1.05;77.09
31483;BME280;18103;52.246;8.052;2023-04-03T04:22:18;101981.94;;;1.01;77.17
31483;BME280;18103;52.246;8.052;2023-04-03T04:24:44;101989.75;;;0.98;77.04
31483;BME280;18103;52.246;8.052;2023-04-03T04:27:14;101987.94;;;1.05;77.01
31483;BME280;18103;52.246;8.052;2023-04-03T04:29:44;101990.66;;;0.97;77.13
31483;BME280;18103;52.246;8.052;2023-04-03T04:32:09;101989.84;;;0.90;77.44
31483;BME280;18103;52.246;8.052;2023-04-03T04:34:37;101986.38;;;0.88;77.50
31483;BME280;18103;52.246;8.052;2023-04-03T04:37:02;101987.28;;;0.89;77.77
31483;BME280;18103;52.246;8.052;2023-04-03T04:39:27;101977.72;;;0.89;77.54
31483;BME280;18103;52.246;8.052;2023-04-03T04:41:55;101989.00;;;0.88;77.56
31483;BME280;18103;52.246;8.052;2023-04-03T04:44:20;101992.53;;;0.82;77.98
31483;BME280;18103;52.246;8.052;2023-04-03T04:46:48;101995.13;;;0.82;77.87
31483;BME280;18103;52.246;8.052;2023-04-03T04:49:14;101990.84;;;0.77;78.61
31483;BME280;18103;52.246;8.052;2023-04-03T04:51:41;101998.56;;;0.86;77.94
31483;BME280;18103;52.246;8.052;2023-04-03T04:54:12;102002.97;;;0.79;78.15
31483;BME280;18103;52.246;8.052;2023-04-03T04:56:40;101989.91;;;0.85;77.71
31483;BME280;18103;52.246;8.052;2023-04-03T04:59:08;102004.69;;;0.80;77.68
31483;BME280;18103;52.246;8.052;2023-04-03T05:01:33;101995.19;;;0.78;77.87
31483;BME280;18103;52.246;8.052;2023-04-03T05:03:58;102004.75;;;0.73;78.09
31483;BME280;18103;52.246;8.052;2023-04-03T05:06:26;102003.94;;;0.69;78.34
31483;BME280;18103;52.246;8.052;2023-04-03T05:08:51;102012.53;;;0.77;77.68
31483;BME280;18103;52.246;8.052;2023-04-03T05:11:17;102016.91;;;0.72;77.94
31483;BME280;18103;52.246;8.052;2023-04-03T05:13:42;102016.84;;;0.77;78.08
31483;BME280;18103;52.246;8.052;2023-04-03T05:16:10;102018.66;;;0.68;78.18
31483;BME280;18103;52.246;8.052;2023-04-03T05:18:38;102019.50;;;0.72;78.04
31483;BME280;18103;52.246;8.052;2023-04-03T05:21:06;102022.03;;;0.78;77.87
31483;BME280;18103;52.246;8.052;2023-04-03T05:23:34;102029.06;;;0.70;78.08
31483;BME280;18103;52.246;8.052;2023-04-03T05:25:59;102025.56;;;0.71;77.72
31483;BME280;18103;52.246;8.052;2023-04-03T05:28:27;102030.75;;;0.71;78.17
31483;BME280;18103;52.246;8.052;2023-04-03T05:30:57;102035.94;;;0.76;78.28
31483;BME280;18103;52.246;8.052;2023-04-03T05:33:27;102024.66;;;0.75;77.89
31483;BME280;18103;52.246;8.052;2023-04-03T05:35:53;102035.78;;;0.91;77.45
31483;BME280;18103;52.246;8.052;2023-04-03T05:38:21;102041.81;;;0.92;77.22
31483;BME280;18103;52.246;8.052;2023-04-03T05:40:46;102029.81;;;0.80;77.60
31483;BME280;18103;52.246;8.052;2023-04-03T05:43:12;102039.28;;;0.87;77.32
31483;BME280;18103;52.246;8.052;2023-04-03T05:45:37;102035.84;;;0.83;77.48
31483;BME280;18103;52.246;8.052;2023-04-03T05:48:03;102036.50;;;1.02;77.24
31483;BME280;18103;52.246;8.052;2023-04-03T05:50:30;102046.88;;;1.04;77.07
31483;BME280;18103;52.246;8.052;2023-04-03T05:52:57;102054.75;;;0.98;77.54
31483;BME280;18103;52.246;8.052;2023-04-03T05:55:24;102044.34;;;1.01;77.30
31483;BME280;18103;52.246;8.052;2023-04-03T05:57:50;102046.81;;;1.10;77.00
31483;BME280;18103;52.246;8.052;2023-04-03T06:00:18;102046.03;;;1.05;77.04
31483;BME280;18103;52.246;8.052;2023-04-03T06:02:46;102049.53;;;1.01;76.71
31483;BME280;18103;52.246;8.052;2023-04-03T06:05:12;102045.91;;;1.13;76.74
31483;BME280;18103;52.246;8.052;2023-04-03T06:07:38;102056.25;;;1.17;76.97
31483;BME280;18103;52.246;8.052;2023-04-03T06:10:04;102057.13;;;1.18;76.86
31483;BME280;18103;52.246;8.052;2023-04-03T06:12:30;102064.00;;;1.25;76.53
31483;BME280;18103;52.246;8.052;2023-04-03T06:14:55;102062.19;;;1.30;76.41
31483;BME280;18103;52.246;8.052;2023-04-03T06:17:23;102067.28;;;1.40;76.38
31483;BME280;18103;52.246;8.052;2023-04-03T06:19:49;102069.75;;;1.50;76.19
31483;BME280;18103;52.246;8.052;2023-04-03T06:22:15;102067.91;;;1.59;75.65
31483;BME280;18103;52.246;8.052;2023-04-03T06:24:40;102062.50;;;1.74;75.36
31483;BME280;18103;52.246;8.052;2023-04-03T06:27:06;102070.00;;;1.96;75.19
31483;BME280;18103;52.246;8.052;2023-04-03T06:29:39;102064.69;;;2.03;74.55
31483;BME280;18103;52.246;8.052;2023-04-03T06:32:05;102071.25;;;2.28;74.21
31483;BME280;18103;52.246;8.052;2023-04-03T06:34:33;102071.91;;;2.42;73.82
31483;BME280;18103;52.246;8.052;2023-04-03T06:36:58;102076.69;;;2.67;73.44
31483;BME280;18103;52.246;8.052;2023-04-03T06:39:29;102077.38;;;2.77;72.23
31483;BME280;18103;52.246;8.052;2023-04-03T06:42:00;102088.34;;;2.96;72.47
31483;BME280;18103;52.246;8.052;2023-04-03T06:44:25;102084.75;;;3.03;71.88
31483;BME280;18103;52.246;8.052;2023-04-03T06:46:51;102083.34;;;3.32;70.94
31483;BME280;18103;52.246;8.052;2023-04-03T06:49:19;102094.16;;;3.55;70.63
31483;BME280;18103;52.246;8.052;2023-04-03T06:51:46;102094.03;;;3.62;69.82
31483;BME280;18103;52.246;8.052;2023-04-03T06:54:14;102102.22;;;3.85;69.60
31483;BME280;18103;52.246;8.052;2023-04-03T06:56:40;102097.63;;;3.97;69.46
31483;BME280;18103;52.246;8.052;2023-04-03T06:59:05;102103.19;;;4.20;68.54
31483;BME280;18103;52.246;8.052;2023-04-03T07:01:33;102104.53;;;4.37;68.17
31483;BME280;18103;52.246;8.052;2023-04-03T07:04:01;102107.47;;;4.60;66.75
31483;BME280;18103;52.246;8.052;2023-04-03T07:06:28;102110.53;;;4.76;66.67
31483;BME280;18103;52.246;8.052;2023-04-03T07:08:55;102106.75;;;4.88;66.01
31483;BME280;18103;52.246;8.052;2023-04-03T07:11:20;102107.09;;;5.07;64.94
31483;BME280;18103;52.246;8.052;2023-04-03T07:13:46;102108.47;;;5.22;64.01
31483;BME280;18103;52.246;8.052;2023-04-03T07:16:14;102109.56;;;5.45;63.36
31483;BME280;18103;52.246;8.052;2023-04-03T07:18:41;102115.53;;;5.50;62.86
31483;BME280;18103;52.246;8.052;2023-04-03T07:21:09;102109.22;;;5.57;63.25
31483;BME280;18103;52.246;8.052;2023-04-03T07:23:35;102116.00;;;5.64;61.01
31483;BME280;18103;52.246;8.052;2023-04-03T07:26:00;102122.91;;;5.67;62.94
31483;BME280;18103;52.246;8.052;2023-04-03T07:28:27;102118.34;;;6.04;61.20
31483;BME280;18103;52.246;8.052;2023-04-03T07:31:02;102122.91;;;6.25;60.49
31483;BME280;18103;52.246;8.052;2023-04-03T07:33:27;102130.75;;;6.27;59.71
31483;BME280;18103;52.246;8.052;2023-04-03T07:35:53;102131.53;;;6.57;59.71
31483;BME280;18103;52.246;8.052;2023-04-03T07:38:18;102139.03;;;6.68;58.68
31483;BME280;18103;52.246;8.052;2023-04-03T07:40:47;102133.09;;;6.63;56.85
31483;BME280;18103;52.246;8.052;2023-04-03T07:43:16;102133.63;;;6.46;57.78
31483;BME280;18103;52.246;8.052;2023-04-03T07:45:42;102134.66;;;6.68;56.58
31483;BME280;18103;52.246;8.052;2023-04-03T07:48:09;102132.97;;;6.93;55.95
31483;BME280;18103;52.246;8.052;2023-04-03T07:50:35;102135.63;;;6.66;55.46
31483;BME280;18103;52.246;8.052;2023-04-03T07:53:03;102131.13;;;6.70;55.87
31483;BME280;18103;52.246;8.052;2023-04-03T07:55:28;102134.38;;;7.03;55.54
31483;BME280;18103;52.246;8.052;2023-04-03T07:57:54;102137.06;;;7.01;53.74
31483;BME280;18103;52.246;8.052;2023-04-03T08:00:21;102124.56;;;7.33;53.25
31483;BME280;18103;52.246;8.052;2023-04-03T08:02:46;102139.72;;;7.25;53.54
31483;BME280;18103;52.246;8.052;2023-04-03T08:05:21;102138.19;;;6.67;51.50
31483;BME280;18103;52.246;8.052;2023-04-03T08:07:51;102135.97;;;7.07;51.25
31483;BME280;18103;52.246;8.052;2023-04-03T08:10:18;102138.44;;;7.12;49.65
31483;BME280;18103;52.246;8.052;2023-04-03T08:12:46;102126.78;;;7.44;50.48
31483;BME280;18103;52.246;8.052;2023-04-03T08:15:14;102131.88;;;7.73;49.69
31483;BME280;18103;52.246;8.052;2023-04-03T08:17:44;102131.38;;;7.63;49.15
31483;BME280;18103;52.246;8.052;2023-04-03T08:20:12;102129.63;;;7.38;48.33
31483;BME280;18103;52.246;8.052;2023-04-03T08:22:37;102120.22;;;7.80;47.42
31483;BME280;18103;52.246;8.052;2023-04-03T08:25:03;102122.00;;;8.01;47.84
31483;BME280;18103;52.246;8.052;2023-04-03T08:27:28;102134.66;;;7.68;45.68
31483;BME280;18103;52.246;8.052;2023-04-03T08:29:56;102127.13;;;7.59;47.31
31483;BME280;18103;52.246;8.052;2023-04-03T08:32:22;102134.63;;;7.69;46.00
31483;BME280;18103;52.246;8.052;2023-04-03T08:34:48;102124.44;;;7.60;46.67
31483;BME280;18103;52.246;8.052;2023-04-03T08:37:13;102126.06;;;8.10;49.99
31483;BME280;18103;52.246;8.052;2023-04-03T08:39:39;102131.97;;;8.15;50.34
31483;BME280;18103;52.246;8.052;2023-04-03T08:45:04;102123.50;;;8.53;49.67
31483;BME280;18103;52.246;8.052;2023-04-03T08:50:36;102128.94;;;8.70;50.48
31483;BME280;18103;52.246;8.052;2023-04-03T08:53:14;102130.53;;;8.75;50.33
31483;BME280;18103;52.246;8.052;2023-04-03T08:55:46;102130.06;;;8.65;52.00
31483;BME280;18103;52.246;8.052;2023-04-03T08:58:33;102119.25;;;8.71;50.14
31483;BME280;18103;52.246;8.052;2023-04-03T09:01:05;102121.09;;;8.69;49.24
31483;BME280;18103;52.246;8.052;2023-04-03T09:03:33;102130.50;;;8.95;50.57
31483;BME280;18103;52.246;8.052;2023-04-03T09:08:47;102129.16;;;9.07;49.50
31483;BME280;18103;52.246;8.052;2023-04-03T09:11:26;102122.72;;;8.51;48.37
31483;BME280;18103;52.246;8.052;2023-04-03T09:14:15;102131.19;;;8.57;49.38
31483;BME280;18103;52.246;8.052;2023-04-03T09:16:52;102128.25;;;8.65;48.79
31483;BME280;18103;52.246;8.052;2023-04-03T09:19:35;102129.47;;;9.20;50.93
31483;BME280;18103;52.246;8.052;2023-04-03T09:22:41;102121.94;;;9.11;48.35
31483;BME280;18103;52.246;8.052;2023-04-03T09:25:22;102117.28;;;9.17;49.25
31483;BME280;18103;52.246;8.052;2023-04-03T09:27:48;102130.19;;;9.23;50.33
31483;BME280;18103;52.246;8.052;2023-04-03T09:30:16;102138.03;;;9.25;49.04
31483;BME280;18103;52.246;8.052;2023-04-03T09:32:45;102132.22;;;8.96;48.32
31483;BME280;18103;52.246;8.052;2023-04-03T09:37:58;102133.34;;;8.90;47.82
31483;BME280;18103;52.246;8.052;2023-04-03T09:42:55;102128.44;;;8.83;47.17
31483;BME280;18103;52.246;8.052;2023-04-03T09:45:33;102124.78;;;9.27;48.42
31483;BME280;18103;52.246;8.052;2023-04-03T09:48:06;102131.41;;;9.35;46.82
31483;BME280;18103;52.246;8.052;2023-04-03T09:50:38;102125.00;;;9.01;46.89
31483;BME280;18103;52.246;8.052;2023-04-03T09:53:11;102124.72;;;9.07;45.64
31483;BME280;18103;52.246;8.052;2023-04-03T09:55:50;102128.00;;;8.51;45.63
31483;BME280;18103;52.246;8.052;2023-04-03T09:58:32;102120.75;;;8.12;45.88
31483;BME280;18103;52.246;8.052;2023-04-03T10:01:00;102107.88;;;8.26;46.13
31483;BME280;18103;52.246;8.052;2023-04-03T10:03:36;102112.88;;;8.32;47.25
31483;BME280;18103;52.246;8.052;2023-04-03T10:06:23;102115.50;;;8.77;47.05
31483;BME280;18103;52.246;8.052;2023-04-03T10:09:00;102109.19;;;8.38;46.87
31483;BME280;18103;52.246;8.052;2023-04-03T10:11:26;102114.31;;;8.63;47.12
31483;BME280;18103;52.246;8.052;2023-04-03T10:13:57;102109.19;;;8.38;47.10
31483;BME280;18103;52.246;8.052;2023-04-03T10:16:38;102106.78;;;8.10;47.39
31483;BME280;18103;52.246;8.052;2023-04-03T10:25:18;102093.75;;;8.07;46.71
31483;BME280;18103;52.246;8.052;2023-04-03T10:27:55;102091.97;;;8.07;46.94
31483;BME280;18103;52.246;8.052;2023-04-03T10:33:23;102086.63;;;8.96;47.36
31483;BME280;18103;52.246;8.052;2023-04-03T10:38:20;102087.31;;;9.20;46.76
31483;BME280;18103;52.246;8.052;2023-04-03T10:40:57;102084.63;;;9.40;45.35
31483;BME280;18103;52.246;8.052;2023-04-03T10:43:42;102085.81;;;8.94;44.77
31483;BME280;18103;52.246;8.052;2023-04-03T10:46:18;102087.44;;;9.17;44.83
31483;BME280;18103;52.246;8.052;2023-04-03T10:51:21;102082.56;;;10.22;46.51
31483;BME280;18103;52.246;8.052;2023-04-03T10:54:13;102074.00;;;9.99;45.12
31483;BME280;18103;52.246;8.052;2023-04-03T10:56:50;102063.66;;;9.94;46.36
31483;BME280;18103;52.246;8.052;2023-04-03T10:59:26;102075.84;;;9.97;47.07
31483;BME280;18103;52.246;8.052;2023-04-03T11:02:04;102075.22;;;9.92;46.50
31483;BME280;18103;52.246;8.052;2023-04-03T11:04:36;102072.50;;;9.55;45.72
31483;BME280;18103;52.246;8.052;2023-04-03T11:07:24;102074.59;;;9.68;46.15
31483;BME280;18103;52.246;8.052;2023-04-03T11:10:02;102065.75;;;9.31;44.93
31483;BME280;18103;52.246;8.052;2023-04-03T11:12:41;102060.03;;;9.21;45.50
31483;BME280;18103;52.246;8.052;2023-04-03T11:15:12;102070.50;;;9.22;45.23
31483;BME280;18103;52.246;8.052;2023-04-03T11:17:45;102068.25;;;8.94;43.65
31483;BME280;18103;52.246;8.052;2023-04-03T11:20:31;102058.97;;;9.25;44.52
31483;BME280;18103;52.246;8.052;2023-04-03T11:23:06;102056.63;;;9.38;43.61
31483;BME280;18103;52.246;8.052;2023-04-03T11:25:39;102057.25;;;8.84;43.71
31483;BME280;18103;52.246;8.052;2023-04-03T11:28:14;102067.44;;;9.13;43.64
31483;BME280;18103;52.246;8.052;2023-04-03T11:36:29;102054.84;;;9.19;43.91
31483;BME280;18103;52.246;8.052;2023-04-03T11:38:59;102048.81;;;9.36;42.95
31483;BME280;18103;52.246;8.052;2023-04-03T11:41:29;102048.28;;;9.28;44.19
31483;BME280;18103;52.246;8.052;2023-04-03T11:46:50;102044.59;;;9.32;43.79
31483;BME280;18103;52.246;8.052;2023-04-03T12:16:30;102021.88;;;9.30;44.98
31483;BME280;18103;52.246;8.052;2023-04-03T12:24:31;102002.06;;;9.21;45.19
31483;BME280;18103;52.246;8.052;2023-04-03T12:29:33;102002.50;;;9.12;46.30
31483;BME280;18103;52.246;8.052;2023-04-03T12:35:23;101996.47;;;8.89;46.40
31483;BME280;18103;52.246;8.052;2023-04-03T12:46:52;101984.47;;;8.63;45.86
31483;BME280;18103;52.246;8.052;2023-04-03T12:51:48;101976.25;;;8.70;45.15
31483;BME280;18103;52.246;8.052;2023-04-03T12:54:29;101971.00;;;8.89;46.47
31483;BME280;18103;52.246;8.052;2023-04-03T12:57:16;101970.56;;;8.80;44.59
31483;BME280;18103;52.246;8.052;2023-04-03T12:59:47;101965.97;;;9.04;44.38
31483;BME280;18103;52.246;8.052;2023-04-03T13:02:31;101964.88;;;9.27;44.93
31483;BME280;18103;52.246;8.052;2023-04-03T13:05:06;101967.19;;;9.35;44.75
31483;BME280;18103;52.246;8.052;2023-04-03T13:07:34;101958.47;;;9.52;43.78
31483;BME280;18103;52.246;8.052;2023-04-03T13:12:56;101957.00;;;9.64;44.98
31483;BME280;18103;52.246;8.052;2023-04-03T13:15:30;101951.09;;;9.22;41.88
31483;BME280;18103;52.246;8.052;2023-04-03T13:18:10;101954.50;;;9.43;42.09
31483;BME280;18103;52.246;8.052;2023-04-03T13:20:49;101948.09;;;9.30;42.94
31483;BME280;18103;52.246;8.052;2023-04-03T13:23:16;101936.91;;;9.61;42.85
31483;BME280;18103;52.246;8.052;2023-04-03T13:25:46;101942.88;;;10.36;43.36
31483;BME280;18103;52.246;8.052;2023-04-03T13:28:16;101945.66;;;10.33;42.22
31483;BME280;18103;52.246;8.052;2023-04-03T13:33:59;101942.13;;;9.63;42.05
31483;BME280;18103;52.246;8.052;2023-04-03T13:36:34;101946.34;;;9.67;43.00
31483;BME280;18103;52.246;8.052;2023-04-03T13:41:35;101942.94;;;10.00;41.97
31483;BME280;18103;52.246;8.052;2023-04-03T13:46:49;101937.66;;;10.00;40.49
31483;BME280;18103;52.246;8.052;2023-04-03T13:51:44;101921.28;;;10.10;40.90
31483;BME280;18103;52.246;8.052;2023-04-03T13:54:19;101923.19;;;10.59;41.77
31483;BME280;18103;52.246;8.052;2023-04-03T13:56:45;101921.94;;;10.16;40.59
31483;BME280;18103;52.246;8.052;2023-04-03T14:01:54;101919.50;;;10.46;41.80
31483;BME280;18103;52.246;8.052;2023-04-03T14:04:23;101910.66;;;10.47;42.00
31483;BME280;18103;52.246;8.052;2023-04-03T14:06:49;101902.84;;;10.61;41.51
31483;BME280;18103;52.246;8.052;2023-04-03T14:09:15;101907.72;;;10.36;42.53
31483;BME280;18103;52.246;8.052;2023-04-03T14:11:44;101907.03;;;10.15;42.13
31483;BME280;18103;52.246;8.052;2023-04-03T14:14:23;101899.81;;;10.36;42.76
31483;BME280;18103;52.246;8.052;2023-04-03T14:16:54;101898.06;;;10.52;41.48
31483;BME280;18103;52.246;8.052;2023-04-03T14:19:25;101895.66;;;10.48;41.62
31483;BME280;18103;52.246;8.052;2023-04-03T14:21:54;101892.41;;;10.25;41.35
31483;BME280;18103;52.246;8.052;2023-04-03T14:24:24;101893.25;;;10.43;41.00
31483;BME280;18103;52.246;8.052;2023-04-03T14:26:52;101894.06;;;10.45;40.87
31483;BME280;18103;52.246;8.052;2023-04-03T14:29:21;101888.16;;;10.56;40.27
31483;BME280;18103;52.246;8.052;2023-04-03T14:31:48;101879.13;;;10.44;40.17
31483;BME280;18103;52.246;8.052;2023-04-03T14:34:16;101887.84;;;10.28;40.02
31483;BME280;18103;52.246;8.052;2023-04-03T14:36:44;101869.25;;;10.48;39.94
31483;BME280;18103;52.246;8.052;2023-04-03T14:39:18;101856.94;;;10.64;40.69
31483;BME280;18103;52.246;8.052;2023-04-03T14:41:44;101865.03;;;10.61;39.97
31483;BME280;18103;52.246;8.052;2023-04-03T14:44:11;101866.84;;;9.92;40.05
31483;BME280;18103;52.246;8.052;2023-04-03T14:46:39;101864.66;;;9.65;40.57
31483;BME280;18103;52.246;8.052;2023-04-03T14:49:19;101863.00;;;10.15;40.19
31483;BME280;18103;52.246;8.052;2023-04-03T14:51:45;101860.88;;;9.88;40.04
31483;BME280;18103;52.246;8.052;2023-04-03T14:54:18;101868.53;;;9.93;41.80
31483;BME280;18103;52.246;8.052;2023-04-03T14:56:50;101868.63;;;9.91;41.69
31483;BME280;18103;52.246;8.052;2023-04-03T14:59:16;101871.03;;;9.79;42.02